KSVN/SVN METAR and TAF weather

Enter ICAO airport designator
Station Type Date Time Source
KSVN METAR 2019/08/24 05:56 UTC NOAA

KSVN 240556Z AUTO 35008KT 10SM SCT019 27/24 A2999 RMK AO2 SLP158 T02650241 10286 20259 55004 $


Station Type Date Time Source
KSVN Decoded METAR 2019/08/24 05:56 UTC NOAA

Station name not available
Aug 24, 2019 - 01:56 AM EDT / 2019.08.24 0556 UTC
Wind: from the N (350 degrees) at 9 MPH (8 KT):0
Visibility: 10 mile(s):0
Sky conditions: partly cloudy
Temperature: 79.7 F (26.5 C)
Dew Point: 75.4 F (24.1 C)
Relative Humidity: 86%
Pressure (altimeter): 29.99 in. Hg (1015 hPa)
Pressure tendency: 0.01 inches (0.4 hPa) lower than three hours ago
ob: KSVN 240556Z AUTO 35008KT 10SM SCT019 27/24 A2999 RMK AO2 SLP158 T02650241 10286 20259 55004
cycle: 6

Station Type Date Time Source
KSVN TAF 2019/08/24 04:09 UTC NOAA

TAF KSVN 240400Z 2404/2510 22006KT 9999 FEW120 SCT250 QNH2995INS
BECMG 2423/2424 06009KT 8000 -SHRA BKN025 BKN250 QNH2996INS
BECMG 2505/2506 04006KT 9999 NSW SCT050 SCT250 QNH2999INS TX32/2417Z TN24/2411Z

Example: see airport list